Time;durP1;ratioP1;P1;durP2;ratioP2;P2;SDS_P1;SDS_P2;PMS_P1;PMS_P2;Temp;Humidity;BMP_temperature;BMP_pressure;BME280_temperature;BME280_humidity;BME280_pressure;Samples;Min_cycle;Max_cycle;Signal;HPM_P1;HPM_P2
2023/01/17 00:00:33;;;;;;;2.65;0.30;;;3.40;99.90;;;;;;6159193;23;20097;-87
2023/01/17 00:03:09;;;;;;;1.23;0.17;;;3.40;99.90;;;;;;6187816;23;20094;-88
2023/01/17 00:11:20;;;;;;;4.28;0.75;;;4.30;99.90;;;;;;6184788;23;20044;-87
2023/01/17 00:13:48;;;;;;;1.75;0.20;;;3.10;99.90;;;;;;6160231;23;20445;-87
2023/01/17 00:16:14;;;;;;;4.68;0.60;;;3.60;99.90;;;;;;6185594;23;20091;-87
2023/01/17 00:26:01;;;;;;;3.65;0.30;;;3.20;99.90;;;;;;6159840;23;20110;-87
2023/01/17 01:33:44;;;;;;;10.57;1.83;;;3.50;99.90;;;;;;6212292;23;20563;-87
2023/01/17 01:36:10;;;;;;;12.07;1.42;;;3.70;99.90;;;;;;6188780;23;20104;-87
2023/01/17 01:38:37;;;;;;;8.15;0.85;;;4.00;99.90;;;;;;6188668;23;20433;-87
2023/01/17 01:41:03;;;;;;;10.15;1.10;;;3.50;99.90;;;;;;6213534;23;20472;-87
2023/01/17 01:43:59;;;;;;;11.38;1.35;;;3.50;99.90;;;;;;6189602;23;20019;-87
2023/01/17 01:46:35;;;;;;;9.25;1.20;;;3.50;99.90;;;;;;6189685;23;20020;-86
2023/01/17 01:49:11;;;;;;;10.25;1.30;;;3.40;99.90;;;;;;6188099;23;20436;-87
2023/01/17 01:51:42;;;;;;;9.00;1.77;;;3.40;99.90;;;;;;6188803;23;20117;-86
2023/01/17 01:54:13;;;;;;;8.60;1.02;;;4.00;99.90;;;;;;6213235;23;20051;-86
2023/01/17 01:56:40;;;;;;;9.07;1.00;;;4.00;99.90;;;;;;6212682;23;20012;-87
2023/01/17 01:59:10;;;;;;;13.32;1.10;;;3.30;99.90;;;;;;6186777;23;20028;-87
2023/01/17 02:01:36;;;;;;;6.18;1.00;;;4.20;99.90;;;;;;6213216;23;20038;-86
2023/01/17 02:04:03;;;;;;;10.43;0.73;;;3.90;99.90;;;;;;6212049;23;20016;-87
2023/01/17 02:06:34;;;;;;;9.13;1.88;;;3.30;99.90;;;;;;6188607;23;20520;-86
2023/01/17 02:09:16;;;;;;;9.35;1.48;;;3.30;99.90;;;;;;6187584;23;20162;-86
2023/01/17 02:11:44;;;;;;;14.18;1.33;;;3.30;99.90;;;;;;6187202;23;20020;-86
2023/01/17 02:14:16;;;;;;;9.30;1.13;;;3.90;99.90;;;;;;6187729;23;20055;-86
2023/01/17 02:16:55;;;;;;;18.30;1.90;;;3.90;99.90;;;;;;6212592;23;20681;-86
2023/01/17 02:19:35;;;;;;;10.45;1.70;;;3.30;99.90;;;;;;6188337;23;20026;-87
2023/01/17 02:22:22;;;;;;;13.52;1.50;;;3.30;99.90;;;;;;6187497;23;20012;-86
2023/01/17 02:25:13;;;;;;;11.85;1.95;;;3.30;99.90;;;;;;6186824;23;20031;-86
2023/01/17 02:28:09;;;;;;;14.07;1.85;;;3.30;99.90;;;;;;6188049;23;20015;-87
2023/01/17 02:30:40;;;;;;;14.60;2.00;;;3.30;99.90;;;;;;6212371;23;20377;-86
2023/01/17 02:33:24;;;;;;;9.45;1.30;;;4.20;99.90;;;;;;6211473;23;20023;-86
2023/01/17 02:36:06;;;;;;;5.50;1.00;;;3.90;99.90;;;;;;6187344;23;20110;-86
2023/01/17 02:38:53;;;;;;;10.18;1.35;;;3.40;99.90;;;;;;6184407;23;20098;-86
2023/01/17 02:41:35;;;;;;;9.63;1.55;;;3.40;99.90;;;;;;6214413;23;20027;-86
2023/01/17 02:44:02;;;;;;;14.45;1.02;;;4.10;99.90;;;;;;6186199;23;20023;-88
2023/01/17 02:46:31;;;;;;;8.70;0.93;;;3.70;99.90;;;;;;6188692;23;20458;-88
2023/01/17 02:49:31;;;;;;;8.68;1.02;;;4.60;99.90;;;;;;6187693;23;20074;-88
2023/01/17 02:52:43;;;;;;;6.50;0.80;;;3.50;99.90;;;;;;6215180;23;20086;-89
2023/01/17 02:55:36;;;;;;;9.75;0.90;;;3.50;99.90;;;;;;6188335;23;20016;-88
2023/01/17 02:58:08;;;;;;;8.63;1.15;;;3.40;99.90;;;;;;6186889;23;20024;-89
2023/01/17 03:00:52;;;;;;;7.95;1.00;;;3.40;99.90;;;;;;6186981;23;20022;-86
2023/01/17 03:03:27;;;;;;;8.13;0.90;;;3.40;99.90;;;;;;6188203;23;20012;-85
2023/01/17 03:06:18;;;;;;;9.50;1.10;;;3.20;99.90;;;;;;6186968;23;20090;-86
2023/01/17 03:08:47;;;;;;;10.10;1.35;;;3.40;99.90;;;;;;6212297;23;20020;-87
2023/01/17 03:11:54;;;;;;;10.98;1.27;;;3.40;99.90;;;;;;6187998;23;20020;-85
2023/01/17 03:14:13;;;;;;;11.02;1.40;;;4.70;99.90;;;;;;6209152;23;20020;-86
2023/01/17 03:16:39;;;;;;;7.57;1.00;;;4.60;99.90;;;;;;6190168;23;20023;-86
2023/01/17 03:19:04;;;;;;;7.65;1.40;;;4.60;99.90;;;;;;6188394;23;20020;-86
2023/01/17 03:21:30;;;;;;;12.52;1.42;;;4.10;99.90;;;;;;6214194;23;20020;-86
2023/01/17 03:23:56;;;;;;;9.98;1.30;;;3.60;99.90;;;;;;6188985;23;20016;-86
2023/01/17 03:26:22;;;;;;;10.63;1.27;;;4.60;99.90;;;;;;6189152;23;20031;-86
2023/01/17 03:28:47;;;;;;;13.20;1.10;;;3.10;99.90;;;;;;6187307;23;20093;-86
2023/01/17 03:31:20;;;;;;;10.73;1.05;;;4.40;99.90;;;;;;6214452;23;20056;-86
2023/01/17 03:33:46;;;;;;;11.57;1.03;;;4.30;99.90;;;;;;6213264;23;20106;-85
2023/01/17 03:36:28;;;;;;;12.25;2.00;;;2.50;99.90;;;;;;6214106;23;20048;-85
2023/01/17 03:38:56;;;;;;;7.13;1.25;;;3.30;99.90;;;;;;6212400;23;20020;-86
2023/01/17 03:41:28;;;;;;;9.15;1.08;;;3.10;99.90;;;;;;6214006;23;20024;-86
2023/01/17 03:43:59;;;;;;;9.95;1.67;;;3.20;99.90;;;;;;6184707;23;20020;-86
2023/01/17 03:46:30;;;;;;;13.25;1.20;;;3.50;99.90;;;;;;6189675;23;20020;-86
2023/01/17 03:48:58;;;;;;;12.52;0.98;;;4.40;99.90;;;;;;6212739;23;20020;-85
2023/01/17 03:51:24;;;;;;;10.55;1.30;;;4.10;99.90;;;;;;6214088;23;20016;-85
2023/01/17 03:53:52;;;;;;;16.27;1.15;;;3.20;99.90;;;;;;6212912;23;20039;-85
2023/01/17 03:56:18;;;;;;;13.55;1.67;;;3.20;99.90;;;;;;6239129;23;20016;-84
2023/01/17 03:58:44;;;;;;;10.77;1.58;;;3.40;99.90;;;;;;6211597;23;20385;-86
2023/01/17 04:01:11;;;;;;;12.10;1.15;;;3.10;99.90;;;;;;6189081;23;20020;-87
2023/01/17 04:03:37;;;;;;;10.07;1.40;;;3.00;99.90;;;;;;6213277;23;20066;-85
2023/01/17 04:06:03;;;;;;;11.75;1.42;;;3.90;99.90;;;;;;6189229;23;20031;-86
2023/01/17 04:08:34;;;;;;;10.73;1.50;;;2.90;99.90;;;;;;6189078;23;20016;-86
2023/01/17 04:11:05;;;;;;;17.15;1.85;;;2.90;99.90;;;;;;6212969;23;20448;-86
2023/01/17 04:13:33;;;;;;;11.05;1.20;;;2.60;99.90;;;;;;6213424;23;20028;-86
2023/01/17 04:16:14;;;;;;;10.90;1.17;;;2.80;99.90;;;;;;6212545;23;20077;-85
2023/01/17 04:18:43;;;;;;;13.13;1.48;;;4.10;99.90;;;;;;6214170;23;20028;-86
2023/01/17 04:21:09;;;;;;;9.45;1.48;;;2.80;99.90;;;;;;6189589;23;20016;-86
2023/01/17 04:23:35;;;;;;;10.73;1.38;;;3.70;99.90;;;;;;6213063;23;20023;-86
2023/01/17 04:26:04;;;;;;;9.65;0.85;;;3.40;99.90;;;;;;6213447;23;20370;-86
2023/01/17 04:28:32;;;;;;;9.60;1.23;;;2.80;99.90;;;;;;6192894;23;20349;-86
2023/01/17 04:31:01;;;;;;;7.50;1.02;;;3.40;99.90;;;;;;6182803;23;20028;-87
2023/01/17 04:33:38;;;;;;;10.02;1.02;;;2.50;99.90;;;;;;6159588;23;20022;-86
2023/01/17 04:36:13;;;;;;;10.05;0.80;;;3.20;99.90;;;;;;6209249;23;20031;-86
2023/01/17 04:38:39;;;;;;;8.13;1.10;;;2.70;99.90;;;;;;6158499;23;20341;-86
2023/01/17 04:41:05;;;;;;;6.82;0.93;;;3.30;99.90;;;;;;6182675;23;20038;-86
2023/01/17 04:43:31;;;;;;;12.20;1.48;;;2.50;99.90;;;;;;6183257;23;20075;-86
2023/01/17 04:46:00;;;;;;;12.23;1.83;;;2.60;99.90;;;;;;6182669;23;20095;-87
2023/01/17 04:48:26;;;;;;;16.98;1.60;;;3.50;99.90;;;;;;6159358;23;20024;-86
2023/01/17 04:51:02;;;;;;;9.90;1.90;;;3.40;99.90;;;;;;6158685;23;20444;-87
2023/01/17 04:53:54;;;;;;;8.52;1.05;;;2.40;99.90;;;;;;6162177;23;20119;-87
2023/01/17 04:56:20;;;;;;;10.57;1.30;;;2.30;99.90;;;;;;6183433;23;20117;-86
2023/01/17 04:58:46;;;;;;;10.63;1.30;;;1.90;99.90;;;;;;6181272;23;20063;-87
2023/01/17 05:01:12;;;;;;;10.85;1.10;;;3.30;99.90;;;;;;6184410;23;20095;-86
2023/01/17 05:03:37;;;;;;;10.82;1.25;;;1.60;99.90;;;;;;6158190;23;20020;-86
2023/01/17 05:06:09;;;;;;;8.65;1.40;;;2.40;99.90;;;;;;6158600;23;20021;-86
2023/01/17 05:08:38;;;;;;;7.57;1.10;;;2.20;99.90;;;;;;6157741;23;20635;-86
2023/01/17 05:11:06;;;;;;;10.55;1.05;;;2.20;99.90;;;;;;6158549;23;20115;-87
2023/01/17 05:13:35;;;;;;;14.07;1.33;;;2.00;99.90;;;;;;6157615;23;20384;-86
2023/01/17 05:16:08;;;;;;;15.40;2.15;;;2.60;99.90;;;;;;6158598;23;20016;-87
2023/01/17 05:18:39;;;;;;;13.40;1.55;;;1.50;99.90;;;;;;6158724;23;20050;-86
2023/01/17 05:21:08;;;;;;;10.30;1.27;;;2.10;99.90;;;;;;6181586;23;20013;-87
2023/01/17 05:23:34;;;;;;;11.60;1.13;;;2.10;99.90;;;;;;6158623;23;20017;-85
2023/01/17 05:26:00;;;;;;;8.38;1.02;;;2.60;99.90;;;;;;6158067;23;20024;-87
2023/01/17 05:28:30;;;;;;;11.45;1.33;;;2.20;99.90;;;;;;6201197;23;20448;-87
2023/01/17 05:31:14;;;;;;;11.48;1.50;;;3.20;99.90;;;;;;6230778;23;20026;-86
2023/01/17 05:34:11;;;;;;;13.05;1.20;;;2.30;99.90;;;;;;6211098;23;20118;-86
2023/01/17 05:37:11;;;;;;;10.00;1.13;;;2.20;99.90;;;;;;6212990;23;20032;-86
2023/01/17 05:39:42;;;;;;;12.55;1.08;;;2.10;99.90;;;;;;6198188;23;20185;-86
2023/01/17 05:42:11;;;;;;;8.63;1.25;;;2.00;99.90;;;;;;6211792;23;20024;-86
2023/01/17 05:44:40;;;;;;;7.05;0.80;;;1.90;99.90;;;;;;6186945;23;20023;-86
2023/01/17 05:47:05;;;;;;;11.55;0.80;;;2.70;99.90;;;;;;6212956;23;20033;-86
2023/01/17 05:49:40;;;;;;;17.23;2.22;;;2.80;99.90;;;;;;6187765;23;20012;-86
2023/01/17 05:52:11;;;;;;;9.43;1.10;;;1.70;99.90;;;;;;6206100;23;20098;-86
2023/01/17 05:54:39;;;;;;;6.72;1.05;;;2.80;99.90;;;;;;6187243;23;20017;-86
2023/01/17 05:57:05;;;;;;;8.48;1.40;;;1.70;99.90;;;;;;6187522;23;20016;-86
2023/01/17 05:59:34;;;;;;;9.63;1.10;;;1.60;99.90;;;;;;6213239;23;20016;-86
2023/01/17 06:16:19;;;;;;;12.50;1.60;;;2.10;99.90;;;;;;5942880;23;20937;-87
2023/01/17 06:18:45;;;;;;;7.80;0.95;;;1.40;99.90;;;;;;6063203;23;20066;-86
2023/01/17 06:21:13;;;;;;;14.60;1.70;;;2.00;99.90;;;;;;6064886;23;20057;-86
2023/01/17 06:23:39;;;;;;;8.75;0.95;;;1.20;99.90;;;;;;6085538;23;20022;-86
2023/01/17 06:26:07;;;;;;;11.65;1.40;;;2.30;99.90;;;;;;6124216;23;20020;-86
2023/01/17 06:28:35;;;;;;;11.32;1.50;;;2.00;99.90;;;;;;6187372;23;20388;-86
2023/01/17 06:31:06;;;;;;;10.98;1.08;;;2.30;99.90;;;;;;6187218;23;20020;-86
2023/01/17 06:33:32;;;;;;;7.28;0.90;;;1.20;99.90;;;;;;6187854;23;20020;-86
2023/01/17 06:35:58;;;;;;;7.15;1.13;;;2.20;99.90;;;;;;6237709;23;20022;-86
2023/01/17 06:38:26;;;;;;;17.02;1.88;;;1.20;99.90;;;;;;6212088;23;20009;-86
2023/01/17 06:40:54;;;;;;;9.13;0.95;;;1.10;99.90;;;;;;6186177;23;20095;-86
2023/01/17 06:43:20;;;;;;;10.98;1.67;;;1.20;99.90;;;;;;6212126;23;20020;-85
2023/01/17 06:45:45;;;;;;;8.48;1.00;;;1.90;99.90;;;;;;6185146;23;20012;-85
2023/01/17 06:48:11;;;;;;;4.82;0.85;;;1.50;99.90;;;;;;6212632;23;20024;-86
2023/01/17 06:50:37;;;;;;;10.80;1.42;;;0.70;99.90;;;;;;6213197;23;20020;-86
2023/01/17 06:53:05;;;;;;;8.15;0.90;;;0.90;99.90;;;;;;6210847;23;20023;-85
2023/01/17 06:55:32;;;;;;;9.35;0.90;;;2.00;99.90;;;;;;6187703;23;20024;-86
2023/01/17 06:57:59;;;;;;;8.77;1.23;;;1.00;99.90;;;;;;6185144;23;20020;-86
2023/01/17 07:00:26;;;;;;;4.97;0.65;;;0.60;99.90;;;;;;6187310;23;20024;-85
2023/01/17 07:02:52;;;;;;;4.78;0.77;;;1.60;99.90;;;;;;6186044;23;20020;-86
2023/01/17 07:05:18;;;;;;;10.18;1.20;;;0.80;99.90;;;;;;6211697;23;20020;-86
2023/01/17 07:07:44;;;;;;;7.50;1.00;;;1.80;99.90;;;;;;6187144;23;20104;-86
2023/01/17 07:10:11;;;;;;;9.18;1.33;;;1.60;99.90;;;;;;6212257;23;20020;-85
2023/01/17 07:12:37;;;;;;;7.35;1.40;;;1.70;99.90;;;;;;6211503;23;20012;-84
2023/01/17 07:15:06;;;;;;;6.45;1.20;;;1.40;99.90;;;;;;6210814;23;20597;-85
2023/01/17 07:17:33;;;;;;;6.53;0.93;;;0.60;99.90;;;;;;6212477;23;20099;-85
2023/01/17 07:19:59;;;;;;;8.80;0.85;;;1.70;99.90;;;;;;6185650;23;20055;-85
2023/01/17 07:22:25;;;;;;;10.70;0.98;;;2.10;99.90;;;;;;6187574;23;20016;-85
2023/01/17 07:24:57;;;;;;;8.73;1.15;;;0.80;99.90;;;;;;6187185;23;20027;-85
2023/01/17 07:27:29;;;;;;;9.65;0.80;;;1.30;99.90;;;;;;6185638;23;20078;-85
2023/01/17 07:29:56;;;;;;;7.70;0.73;;;0.60;99.90;;;;;;6186395;23;20023;-86
2023/01/17 07:32:28;;;;;;;8.57;1.27;;;1.90;99.90;;;;;;6212874;23;20047;-86
2023/01/17 07:35:25;;;;;;;8.48;1.25;;;1.10;99.90;;;;;;6210402;23;20356;-84
2023/01/17 07:37:57;;;;;;;8.15;1.00;;;1.00;99.90;;;;;;6183151;23;20026;-85
2023/01/17 07:40:41;;;;;;;5.25;0.77;;;1.30;99.90;;;;;;6237949;23;20030;-85
2023/01/17 07:43:12;;;;;;;6.20;0.70;;;1.70;99.90;;;;;;6186645;23;20028;-85
2023/01/17 07:45:43;;;;;;;8.23;1.17;;;1.20;99.90;;;;;;6186724;23;20097;-85
2023/01/17 07:48:41;;;;;;;10.05;1.08;;;1.00;99.90;;;;;;6187273;23;20058;-86
2023/01/17 07:51:52;;;;;;;6.30;0.70;;;0.50;99.90;;;;;;6199613;23;20051;-86
2023/01/17 07:54:21;;;;;;;10.50;1.55;;;1.00;99.90;;;;;;6181032;23;20098;-86
2023/01/17 07:57:33;;;;;;;5.63;0.85;;;1.10;99.90;;;;;;6186604;23;20016;-86
2023/01/17 08:03:42;;;;;;;7.50;1.08;;;0.40;99.90;;;;;;6205030;23;20063;-86
2023/01/17 08:07:22;;;;;;;8.40;0.98;;;1.10;99.90;;;;;;6189558;23;20012;-86
2023/01/17 08:09:42;;;;;;;;;;;;;;;;;;;;;
2023/01/17 08:12:32;;;;;;;8.20;1.10;;;1.00;99.90;;;;;;6213325;23;20035;-85
2023/01/17 08:15:38;;;;;;;6.40;0.82;;;1.00;99.90;;;;;;6204875;23;20016;-85
2023/01/17 08:18:31;;;;;;;8.23;1.23;;;1.00;99.90;;;;;;6189133;23;20032;-85
2023/01/17 08:21:06;;;;;;;4.00;0.60;;;1.00;99.90;;;;;;6184005;23;20457;-86
2023/01/17 08:23:31;;;;;;;7.00;0.90;;;1.00;99.90;;;;;;6210696;23;20436;-86
2023/01/17 08:26:00;;;;;;;8.00;1.05;;;1.90;99.90;;;;;;6213228;23;20016;-83
2023/01/17 08:28:33;;;;;;;6.88;1.05;;;1.50;99.90;;;;;;6211071;23;20012;-87
2023/01/17 08:37:43;;;;;;;5.05;1.10;;;1.10;99.90;;;;;;6211713;23;20024;-85
2023/01/17 08:40:29;;;;;;;6.22;1.02;;;1.10;99.90;;;;;;6216994;23;20436;-85
2023/01/17 08:43:29;;;;;;;7.05;1.08;;;0.70;99.90;;;;;;6188313;23;20051;-85
2023/01/17 08:46:23;;;;;;;10.70;1.73;;;1.60;99.90;;;;;;6186784;23;20066;-85
2023/01/17 08:49:24;;;;;;;9.25;0.90;;;0.80;99.90;;;;;;6212952;23;20437;-84
2023/01/17 08:52:11;;;;;;;;;;;1.00;99.90;;;;;;6216238;23;20456;-85
2023/01/17 08:54:50;;;;;;;;;;;;;;;;;;;;;
2023/01/17 08:57:55;;;;;;;9.23;1.10;;;1.10;99.90;;;;;;6235235;23;20326;-85
2023/01/17 09:00:50;;;;;;;8.45;1.25;;;1.20;99.90;;;;;;6186707;23;20503;-85
2023/01/17 09:17:24;;;;;;;8.15;1.08;;;1.70;99.90;;;;;;6238631;23;20020;-84
2023/01/17 09:20:00;;;;;;;8.10;1.50;;;3.00;99.90;;;;;;6212069;23;20055;-85
2023/01/17 09:22:41;;;;;;;12.68;0.90;;;2.80;99.90;;;;;;6229115;23;20352;-84
2023/01/17 09:25:47;;;;;;;7.05;0.90;;;2.50;99.90;;;;;;6239060;23;20016;-84
2023/01/17 09:28:13;;;;;;;6.30;1.10;;;1.70;99.90;;;;;;6239187;22;20446;-84
2023/01/17 09:30:42;;;;;;;11.38;0.90;;;3.00;99.90;;;;;;6212666;23;20094;-84
2023/01/17 09:33:17;;;;;;;7.85;1.08;;;2.30;99.90;;;;;;6213931;23;20024;-84
2023/01/17 09:35:48;;;;;;;8.43;1.25;;;1.90;99.90;;;;;;6212524;23;20095;-84
2023/01/17 09:38:20;;;;;;;7.82;1.08;;;1.80;99.90;;;;;;6213954;23;20440;-85
2023/01/17 10:28:51;;;;;;;;;;;;;;;;;;;;;
2023/01/17 10:36:14;;;;;;;2.92;0.30;;;3.30;99.90;;;;;;5974514;24;20168;-85
2023/01/17 10:38:51;;;;;;;2.35;0.20;;;3.10;99.90;;;;;;6117374;23;20116;-84
2023/01/17 10:49:53;;;;;;;;;;;;;;;;;;;;;
2023/01/17 10:56:07;;;;;;;4.65;0.57;;;3.60;99.90;;;;;;6119938;23;20020;-85
2023/01/17 10:59:43;;;;;;;4.72;0.38;;;3.70;99.90;;;;;;6188824;23;20062;-85
2023/01/17 11:03:29;;;;;;;;;;;;;;;;;;;;;
2023/01/17 11:14:46;;;;;;;2.58;0.50;;;3.60;99.90;;;;;;6211009;23;20103;-85
2023/01/17 11:18:42;;;;;;;6.10;0.85;;;3.00;99.90;;;;;;6239326;22;20031;-84
2023/01/17 11:22:03;;;;;;;2.92;0.50;;;3.50;99.90;;;;;;6206992;23;20111;-84
2023/01/17 11:43:14;;;;;;;6.15;0.77;;;3.60;99.90;;;;;;6177906;23;20021;-83
2023/01/17 11:58:05;;;;;;;5.43;0.80;;;3.80;99.90;;;;;;6142709;23;20417;-83
2023/01/17 12:52:09;;;;;;;7.88;1.00;;;3.50;99.90;;;;;;5842712;24;20448;-84
2023/01/17 13:07:24;;;;;;;4.68;0.90;;;4.60;99.90;;;;;;5919729;24;20090;-83
2023/01/17 13:10:46;;;;;;;;;;;;;;;;;;;;;
2023/01/17 13:14:12;;;;;;;8.18;1.10;;;5.20;99.90;;;;;;6000273;23;20024;-84
2023/01/17 13:17:11;;;;;;;;;;;;;;;;;;;;;
2023/01/17 13:24:30;;;;;;;5.68;0.65;;;4.40;99.90;;;;;;6082218;23;20074;-84
2023/01/17 13:28:07;;;;;;;3.75;0.90;;;4.60;99.90;;;;;;5969824;23;20323;-83
2023/01/17 13:31:19;;;;;;;;;;;;;;;;;;;;;
2023/01/17 13:34:41;;;;;;;7.15;0.93;;;4.40;99.90;;;;;;6030191;23;20019;-83
2023/01/17 13:38:22;;;;;;;;;;;;;;;;;;;;;
2023/01/17 13:41:49;;;;;;;3.95;0.70;;;3.90;99.90;;;;;;6186579;23;20027;-83
2023/01/17 13:45:34;;;;;;;4.38;0.68;;;4.10;99.90;;;;;;6219640;23;20016;-83
2023/01/17 13:49:11;;;;;;;7.57;0.82;;;3.90;99.90;;;;;;6240836;23;20506;-83
2023/01/17 14:01:10;;;;;;;4.97;0.85;;;3.60;99.90;;;;;;6070172;23;20033;-83
2023/01/17 14:07:41;;;;;;;9.43;0.88;;;3.50;99.90;;;;;;6092122;23;20038;-83
2023/01/17 14:13:50;;;;;;;4.93;0.60;;;3.20;99.90;;;;;;6063478;23;20024;-83
2023/01/17 14:16:23;;;;;;;10.82;1.45;;;3.80;99.90;;;;;;6186111;23;20340;-83
2023/01/17 14:20:02;;;;;;;3.85;0.68;;;3.40;99.90;;;;;;6169988;23;20055;-83
2023/01/17 14:22:46;;;;;;;6.40;0.68;;;3.80;99.90;;;;;;6178208;23;20085;-83
2023/01/17 14:26:32;;;;;;;;;;;;;;;;;;;;;
2023/01/17 14:29:36;;;;;;;;;;;;;;;;;;;;;
2023/01/17 14:36:24;;;;;;;;;;;;;;;;;;;;;
2023/01/17 14:39:27;;;;;;;2.03;0.40;;;3.80;99.90;;;;;;6211438;23;20016;-83
2023/01/17 14:45:43;;;;;;;;;;;4.50;99.90;;;;;;6118651;23;20074;-83
2023/01/17 14:48:49;;;;;;;7.30;1.00;;;3.50;99.90;;;;;;6190075;23;20236;-83
2023/01/17 14:51:49;;;;;;;4.53;0.60;;;2.60;99.90;;;;;;6167198;23;20020;-83
2023/01/17 14:54:28;;;;;;;6.53;0.90;;;3.10;99.90;;;;;;6188999;23;20098;-83
2023/01/17 14:58:18;;;;;;;4.93;0.70;;;3.30;99.90;;;;;;6186158;23;20393;-84
2023/01/17 15:01:16;;;;;;;;;;;;;;;;;;;;;
2023/01/17 15:04:37;;;;;;;2.80;0.70;;;3.20;99.90;;;;;;6206545;23;20031;-83
2023/01/17 15:07:56;;;;;;;5.45;0.85;;;3.20;99.90;;;;;;6183853;23;20514;-83
2023/01/17 15:11:19;;;;;;;;;;;;;;;;;;;;;
2023/01/17 15:14:08;;;;;;;5.50;0.80;;;3.20;99.90;;;;;;6191319;23;20127;-82
2023/01/17 15:16:36;;;;;;;3.10;0.60;;;4.00;99.90;;;;;;6213457;23;20024;-82
2023/01/17 15:19:28;;;;;;;2.53;0.50;;;3.10;99.90;;;;;;6187386;23;20507;-82
2023/01/17 15:21:59;;;;;;;3.70;0.75;;;2.90;99.90;;;;;;6213985;23;20362;-82
2023/01/17 15:24:28;;;;;;;5.03;1.02;;;2.80;99.90;;;;;;6188475;23;20027;-82
2023/01/17 15:26:54;;;;;;;6.85;1.30;;;2.70;99.90;;;;;;6213956;23;20032;-85
2023/01/17 15:29:38;;;;;;;4.75;0.70;;;2.60;99.90;;;;;;6188944;23;20066;-82
2023/01/17 15:32:23;;;;;;;4.43;1.00;;;2.50;99.90;;;;;;6214580;23;20103;-82
2023/01/17 15:35:06;;;;;;;4.22;0.40;;;2.50;99.90;;;;;;6214205;23;20099;-83
2023/01/17 15:37:57;;;;;;;3.03;0.60;;;2.20;99.90;;;;;;6193041;23;20023;-82
2023/01/17 15:40:24;;;;;;;2.67;0.65;;;2.20;99.90;;;;;;6188424;22;20518;-82
2023/01/17 15:43:18;;;;;;;4.13;0.60;;;2.40;99.90;;;;;;6189754;23;20056;-83
2023/01/17 15:46:28;;;;;;;4.65;0.90;;;2.10;99.90;;;;;;6180439;23;20035;-82
2023/01/17 15:49:16;;;;;;;4.72;0.82;;;2.00;99.90;;;;;;6217946;23;20062;-82
2023/01/17 15:51:56;;;;;;;4.15;0.90;;;1.90;99.90;;;;;;6189506;23;20031;-82
2023/01/17 15:54:43;;;;;;;;;;;;;;;;;;;;;
2023/01/17 15:57:31;;;;;;;6.72;1.13;;;1.70;99.90;;;;;;6213450;23;20103;-82
2023/01/17 16:00:36;;;;;;;4.28;0.80;;;2.80;99.90;;;;;;6188102;23;20157;-81
2023/01/17 16:03:58;;;;;;;6.55;1.25;;;0.90;99.90;;;;;;6213311;23;20074;-82
2023/01/17 16:06:44;;;;;;;4.35;1.10;;;1.60;99.90;;;;;;6206800;23;20027;-83
2023/01/17 16:13:19;;;;;;;;;;;;;;;;;;;;;
2023/01/17 16:16:25;;;;;;;8.60;1.10;;;2.40;99.90;;;;;;6187587;23;20016;-83
2023/01/17 16:19:46;;;;;;;15.40;1.63;;;1.30;99.90;;;;;;6213282;23;20063;-82
2023/01/17 16:21:55;;;;;;;5.75;1.20;;;1.50;99.90;;;;;;6195402;23;20033;-82
2023/01/17 16:24:47;;;;;;;4.53;1.08;;;1.40;99.90;;;;;;6188610;23;20012;-82
2023/01/17 16:27:57;;;;;;;;;;;;;;;;;;;;;
2023/01/17 16:30:58;;;;;;;11.13;1.10;;;0.80;99.90;;;;;;6185012;23;20024;-83
2023/01/17 16:33:45;;;;;;;;;;;;;;;;;;;;;
2023/01/17 16:36:48;;;;;;;;;;;;;;;;;;;;;
2023/01/17 16:39:28;;;;;;;3.28;0.88;;;0.70;99.90;;;;;;6213334;23;20058;-83
2023/01/17 16:42:00;;;;;;;3.88;1.00;;;2.00;99.90;;;;;;6211718;23;20063;-83
2023/01/17 16:44:26;;;;;;;6.45;0.93;;;2.00;99.90;;;;;;6212608;23;20468;-83
2023/01/17 16:47:03;;;;;;;4.50;1.30;;;2.50;99.90;;;;;;6212113;23;20016;-83
2023/01/17 16:49:32;;;;;;;8.02;1.10;;;1.30;99.90;;;;;;6188145;23;20058;-83
2023/01/17 16:54:48;;;;;;;3.15;1.08;;;1.30;99.90;;;;;;6212179;23;20027;-83
2023/01/17 16:57:14;;;;;;;4.40;1.20;;;0.70;99.90;;;;;;6211649;23;20392;-83
2023/01/17 16:59:42;;;;;;;7.45;1.23;;;1.30;99.90;;;;;;6187971;23;20429;-83
2023/01/17 17:02:13;;;;;;;3.75;0.95;;;2.30;99.90;;;;;;6212560;23;20023;-83
2023/01/17 17:04:54;;;;;;;4.75;1.30;;;1.80;99.90;;;;;;6238359;23;20329;-82
2023/01/17 17:07:31;;;;;;;7.70;1.48;;;1.20;99.90;;;;;;6213561;23;20027;-83
2023/01/17 17:09:57;;;;;;;4.30;1.00;;;1.50;99.90;;;;;;6185799;23;20868;-83
2023/01/17 17:12:26;;;;;;;6.63;1.17;;;1.20;99.90;;;;;;6189381;23;20027;-82
2023/01/17 17:14:54;;;;;;;4.47;1.40;;;1.20;99.90;;;;;;6212049;23;20039;-83
2023/01/17 17:17:23;;;;;;;12.45;1.73;;;1.30;99.90;;;;;;6212036;23;20639;-83
2023/01/17 17:19:51;;;;;;;5.97;1.10;;;1.30;99.90;;;;;;6186514;23;20031;-82
2023/01/17 17:22:17;;;;;;;6.65;1.10;;;1.90;99.90;;;;;;6212168;23;20426;-84
2023/01/17 17:24:46;;;;;;;6.05;1.33;;;1.10;99.90;;;;;;6211474;23;20024;-83
2023/01/17 17:27:25;;;;;;;4.28;0.98;;;1.10;99.90;;;;;;6240210;23;20134;-83
2023/01/17 17:29:54;;;;;;;4.85;1.17;;;1.10;99.90;;;;;;6187280;23;20012;-84
2023/01/17 17:32:22;;;;;;;5.70;1.05;;;1.00;99.90;;;;;;6211880;23;20451;-83
2023/01/17 17:34:49;;;;;;;8.85;1.30;;;2.20;99.90;;;;;;6211822;23;20028;-82
2023/01/17 17:37:16;;;;;;;8.82;1.30;;;0.50;99.90;;;;;;6213162;23;20047;-83
2023/01/17 17:39:43;;;;;;;6.97;1.75;;;0.90;99.90;;;;;;6212257;23;20050;-83
2023/01/17 17:42:12;;;;;;;6.88;1.48;;;0.80;99.90;;;;;;6212979;23;20103;-84
2023/01/17 17:44:38;;;;;;;8.50;1.67;;;0.80;99.90;;;;;;6212070;23;20016;-84
2023/01/17 17:47:03;;;;;;;5.15;1.15;;;1.00;99.90;;;;;;6210891;23;20429;-84
2023/01/17 17:49:29;;;;;;;5.95;1.58;;;0.80;99.90;;;;;;6212980;23;20019;-84
2023/01/17 17:52:08;;;;;;;7.20;2.10;;;1.40;99.90;;;;;;6211088;23;20051;-85
2023/01/17 17:54:34;;;;;;;3.88;1.52;;;0.80;99.90;;;;;;6213305;23;20146;-84
2023/01/17 17:57:00;;;;;;;6.68;1.70;;;1.60;99.90;;;;;;6188155;23;20016;-85
2023/01/17 17:59:26;;;;;;;4.18;1.52;;;0.80;99.90;;;;;;6185916;23;20417;-84
2023/01/17 18:01:52;;;;;;;5.88;1.75;;;1.80;99.90;;;;;;6212462;23;20024;-84
2023/01/17 18:04:18;;;;;;;3.17;1.60;;;0.70;99.90;;;;;;6187251;23;20027;-84
2023/01/17 18:06:44;;;;;;;5.47;1.92;;;0.70;99.90;;;;;;6211313;23;20719;-84
2023/01/17 18:09:14;;;;;;;4.90;2.05;;;1.50;99.90;;;;;;6212800;23;20102;-84
2023/01/17 18:11:41;;;;;;;3.88;1.75;;;1.70;99.90;;;;;;6212693;23;20135;-85
2023/01/17 18:14:09;;;;;;;10.63;2.85;;;0.80;99.90;;;;;;6211333;23;20016;-84
2023/01/17 18:16:40;;;;;;;6.47;2.10;;;1.10;99.90;;;;;;6212093;23;20072;-85
2023/01/17 18:19:19;;;;;;;5.25;1.70;;;0.10;99.90;;;;;;6186566;23;20373;-86
2023/01/17 18:29:38;;;;;;;;;;;;;;;;;;;;;
2023/01/17 18:32:30;;;;;;;5.97;1.70;;;0.50;99.90;;;;;;6210797;23;20055;-87
2023/01/17 18:36:12;;;;;;;6.72;1.95;;;0.50;99.90;;;;;;6184218;23;20514;-85
2023/01/17 18:39:32;;;;;;;13.13;1.80;;;0.50;99.90;;;;;;6132490;23;20015;-85
2023/01/17 18:47:03;;;;;;;7.32;1.73;;;0.50;99.90;;;;;;6073318;23;20097;-86
2023/01/17 18:49:36;;;;;;;4.53;1.40;;;0.50;99.90;;;;;;5969631;23;20032;-87
2023/01/17 18:52:02;;;;;;;4.28;1.48;;;0.80;99.90;;;;;;6048406;23;20035;-85
2023/01/17 18:54:42;;;;;;;6.60;1.30;;;0.40;99.90;;;;;;6178641;23;20020;-85
2023/01/17 18:57:18;;;;;;;11.45;1.70;;;0.50;99.90;;;;;;6202950;23;20064;-84
2023/01/17 18:59:43;;;;;;;6.32;1.70;;;1.60;99.90;;;;;;6151161;23;20070;-84
2023/01/17 19:02:14;;;;;;;6.40;1.70;;;0.50;99.90;;;;;;6153334;23;20016;-84
2023/01/17 19:04:50;;;;;;;6.43;1.83;;;0.40;99.90;;;;;;6174874;23;20025;-85
2023/01/17 19:07:20;;;;;;;7.00;1.95;;;1.50;99.90;;;;;;6204433;23;20099;-85
2023/01/17 19:09:46;;;;;;;4.47;1.75;;;0.70;99.90;;;;;;6176862;23;20023;-85
2023/01/17 19:12:17;;;;;;;7.13;2.00;;;0.40;99.90;;;;;;6154372;23;20079;-85
2023/01/17 19:15:18;;;;;;;7.75;2.38;;;0.90;99.90;;;;;;6174543;23;20020;-84
2023/01/17 19:17:44;;;;;;;5.60;1.90;;;0.90;99.90;;;;;;6156820;23;20024;-84
2023/01/17 19:20:12;;;;;;;7.32;2.40;;;0.40;99.90;;;;;;6153851;23;20345;-84
2023/01/17 19:22:56;;;;;;;11.60;2.40;;;0.40;99.90;;;;;;6163554;23;20028;-85
2023/01/17 19:25:34;;;;;;;5.47;1.92;;;0.40;99.90;;;;;;6178228;23;20033;-84
2023/01/17 19:28:07;;;;;;;10.13;2.42;;;0.40;99.90;;;;;;6178877;23;20055;-84
2023/01/17 19:30:48;;;;;;;;;;;;;;;;;;;;;
2023/01/17 19:33:56;;;;;;;7.75;2.03;;;0.20;99.90;;;;;;6203951;23;20092;-85
2023/01/17 19:37:05;;;;;;;8.85;2.90;;;0.80;99.90;;;;;;6157214;23;20688;-85
2023/01/17 19:40:14;;;;;;;7.20;2.20;;;0.40;99.90;;;;;;6082096;23;20024;-85
2023/01/17 19:43:25;;;;;;;8.40;2.67;;;0.50;99.90;;;;;;6206995;23;20016;-85
2023/01/17 19:46:18;;;;;;;5.45;1.88;;;0.40;99.90;;;;;;6234139;23;20027;-85
2023/01/17 19:48:47;;;;;;;9.32;2.53;;;0.40;99.90;;;;;;6133025;23;20065;-85
2023/01/17 19:51:14;;;;;;;6.20;3.10;;;0.50;99.90;;;;;;6158860;23;20060;-84
2023/01/17 19:53:46;;;;;;;10.48;3.85;;;0.40;99.90;;;;;;6207342;23;20023;-84
2023/01/17 19:56:16;;;;;;;8.20;3.75;;;0.40;99.90;;;;;;6209255;23;20123;-83
2023/01/17 19:58:47;;;;;;;7.72;3.35;;;0.40;99.90;;;;;;6208946;23;20023;-84